Impacts METAR Board INFO
IDs:

KLAS - Las Vegas/McCarran I, NV, US

Updated at: 0340 UTC 22 Nov 2017
Potential Impact None Slight Moderate High
Time21/15Z 21/16Z 21/17Z 21/18Z 21/19Z 21/20Z 21/21Z 21/22Z 21/23Z 22/00Z 22/01Z 22/02Z 22/03Z
VIS10 10 10 10 10 10 10 10 10 10 10 10 10
CIG250 250 250 250 250 250 250 250 250 250 250 250 250
CoverBKNBKNBKNBKNBKNBKNBKNBKNBKNBKNBKNBKNBKN
FltCatVFRVFRVFRVFRVFRVFRVFRVFRVFRVFRVFRVFRVFR
WX--------------------------
WDir2802302307000040000130210
WSpd5 3 3 3 0 0 0 3 0 0 0 3 3
WGst-- -- -- -- -- -- -- -- -- -- -- -- --
Raw hourly METARs
KLAS 211456Z 28005KT 10SM BKN250 10/M09 A3024 RMK AO2 SLP234 T01001089 53020
KLAS 211556Z 23003KT 10SM FEW200 BKN250 12/M08 A3025 RMK AO2 SLP237 T01221083
KLAS 211656Z 23003KT 10SM FEW200 BKN250 16/M12 A3025 RMK AO2 SLP239 T01561117
KLAS 211756Z 07003KT 10SM FEW200 BKN250 17/M10 A3027 RMK AO2 SLP241 T01721100 10172 20094 53009
KLAS 211856Z 00000KT 10SM BKN250 19/M12 A3025 RMK AO2 SLP236 T01891117
KLAS 211956Z 00000KT 10SM BKN250 19/M10 A3023 RMK AO2 SLP229 T01941100
KLAS 212056Z 00000KT 10SM BKN250 21/M09 A3021 RMK AO2 SLP220 T02111094 58018
KLAS 212156Z 04003KT 10SM BKN250 22/M09 A3019 RMK AO2 SLP214 T02221094
KLAS 212256Z 00000KT 10SM FEW200 BKN250 22/M08 A3019 RMK AO2 SLP213 T02221083
KLAS 212356Z 00000KT 10SM FEW200 BKN250 22/M07 A3018 RMK AO2 SLP211 T02171072 10228 20172 56008
KLAS 220056Z 00000KT 10SM SCT200 BKN250 20/M06 A3018 RMK AO2 SLP213 T02001061
KLAS 220156Z 13003KT 10SM SCT200 BKN250 19/M07 A3020 RMK AO2 SLP219 T01941067
KLAS 220256Z 21003KT 10SM SCT200 BKN250 18/M06 A3021 RMK AO2 SLP222 T01831056 53008